Extreme weather reports worldwide

Highest temperatures

Station
 
Location
 
Name
 
Wind
Knots
Gust
Knots
Vis
SM
Temp/Dew
C
Baro
inHg
METAR
 
OEKJ 5 6.21 47/2 29.59 OEKJ 011400Z 25005KT CAVOK 47/02 Q1002
ABD OIAA Abadan, IR Abadan Airport 4 6.21 47/8 29.38 OIAA 011400Z 35004KT CAVOK 47/08 Q0995
NJF ORNI Najaf, IQ Al Najaf International Airport 6 4.97 47/0 29.41 ORNI 011400Z 06006KT 8000 NSC 47/00 Q0996 NOSIG
OKAS KW Ali Al Salem Air Base 9 6.21 46/2 29.40 OKAS 011358Z 28009KT 9999 CLR 47/03 A2940 RMK AO2A SLP949 T04660025 $
TGR DAUK Touggourt, DZ Touggourt Sidi Madhi Airport 12 6.21 46/0 29.79 DAUK 011400Z 20012KT CAVOK 46/00 Q1009

Station
 
Location
 
Name
 
Wind
Knots
Gust
Knots
Vis
SM
Temp/Dew
C
Baro
inHg
METAR
 
TOE DTTZ Tozeur, TN Tozeur Nefta International Airport 5 6.21 46/0 29.79 DTTZ 011400Z VRB05KT CAVOK 46/M00 Q1009
HOF OEAH SA Al Ahsa Airport 8 6.21 46/5 29.41 OEAH 011400Z 22008KT CAVOK 46/05 Q0996 NOSIG
AKW OIAG Aghajari, IR Aghajari Airport 12 6.21 46/9 29.41 OIAG 011400Z 27012KT CAVOK 46/09 Q0996
OICM 4 6.21 46/7 29.47 OICM 011400Z 03004KT 9999 FEW035 46/07 Q0998
BSR ORMM Basrah, IQ Basrah International Airport 12 6.21 46/5 29.38 ORMM 011400Z 35012KT CAVOK 46/05 Q0995 NOSIG
AWZ OIAW Ahwaz, IR Ahwaz Airport 6 6.21 46/7 29.35 OIAW 011430Z 23006KT CAVOK 46/07 Q0994
KQTZ 7 6.21 45/5 29.42 KQTZ 011355Z 26007KT 9999 FEW160 45/05 A2942 RMK SLP963
KQAJ 5 6.21 45/1 29.42 KQAJ 011356Z 08005KT 9999 CLR 45/01 A2942 RMK SLPNO WND DATA ESTMD T04540010
GAE DTTG Gabès, TN Gabès Matmata International Airport 4 6.21 45/-3 29.82 DTTG 011400Z VRB04KT 9999 SCT030 45/M03 Q1010 SIROCCO
DTTK 4 6.21 45/10 29.76 DTTK 011400Z 12004KT 030V190 9999 FEW026 45/10 Q1008 SIROCCO
AQI OEPA Qaisumah, SA Al Qaisumah/Hafr Al Batin Airport 10 6.21 45/11 29.50 OEPA 011400Z 33010KT CAVOK 45/11 Q0999 NOSIG
KWI OKBK Kuwait City, KW Kuwait International Airport 12 4.97 45/12 29.41 OKBK 011400Z 11012KT 8000 NSC 45/12 Q0996 NOSIG
AKH OEPS SA Prince Sultan Air Base 0 6.21 44/1 29.60 OEPS 011356Z 00000KT 9999 CLR 45/01 A2960 RMK AO2A SLP987 WND DATA ESTMD T04480014
XJD OTBH Ar Rayyan, QA Al Udeid Air Base 10 6.21 44/6 29.44 OTBH 011356Z AUTO 07010KT 9999 CLR 44/07 A2944 RMK AO2 SLP970 T04400069 $
BSK DAUB Biskra, DZ Biskra Airport 3 4.35 44/4 29.79 DAUB 011400Z 25003KT 7000 NSC 44/04 Q1009
GAF DTTF Gafsa, TN Gafsa Ksar International Airport 11 4.97 44/-2 29.85 DTTF 011400Z 25011KT 8000 FEW030 44/M02 Q1011 RMK SIROCCO
QJB OEJB Jubail, SA Jubail Airport 10 6.21 44/13 29.41 OEJB 011400Z AUTO 08010KT CAVOK 44/13 Q0996 NOSIG
IHR OIZI Iranshahr, IR Iran Shahr Airport 8 6.21 44/11 29.44 OIZI 011400Z 29008KT 9999 FEW035CB FEW040TCU 44/11 Q0997
DJE DTTJ Djerba, TN Djerba Zarzis International Airport 3 6.21 44/16 29.79 DTTJ 011430Z 36003KT 300V060 CAVOK 44/16 Q1009 RMK SIROCCO
ABS HEBL Abu Simbel, EG Abu Simbel Airport 5 6.21 43/6 29.65 HEBL 011400Z 17005KT CAVOK 43/06 Q1004 NOSIG
DMM OEDF Ad Dammam, SA King Fahd International Airport 12 6.21 43/20 29.38 OEDF 011400Z 07012KT CAVOK 43/20 Q0995 NOSIG
RAH OERF Rafha, SA Rafha Domestic Airport 7 6.21 43/-6 29.56 OERF 011400Z 25007KT CAVOK 43/M06 Q1001 NOSIG
RUH OERK Riyadh, SA King Khaled International Airport 5 6.21 43/6 29.59 OERK 011400Z 01005KT 9999 FEW040 43/06 Q1002 NOSIG
AAN OMAL Al Ain, AE Al Ain International Airport 15 6.21 43/7 29.47 OMAL 011400Z 31015KT CAVOK 43/07 Q0998 NOSIG
MQM LTCR Mardin, TR Mardin Airport 3 6.21 42/5 29.53 LTCR 011350Z 25003KT 210V310 9999 FEW040 42/05 Q1000
IAM DAUZ Aménas, DZ In Aménas Airport 9 19 6.21 42/-3 29.91 DAUZ 011400Z 12009G19KT 060V170 CAVOK 42/M03 Q1013
ATZ HEAT Asyut, EG Asyut International Airport 7 6.21 42/7 29.70 HEAT 011400Z 32007KT CAVOK 42/07 Q1006 NOSIG
LXR HELX Luxor, EG Luxor International Airport 8 6.21 42/5 29.62 HELX 011400Z 31008KT CAVOK 42/05 Q1003 NOSIG
HESW 15 6.21 42/7 29.70 HESW 011400Z 01015KT CAVOK 42/07 Q1006
ELQ OEGS SA Gassim Airport 5 6.21 42/7 29.62 OEGS 011400Z 35005KT CAVOK 42/07 Q1003
RAE OERR Arar, SA Arar Domestic Airport 12 6.21 42/-6 29.59 OERR 011400Z 29012KT CAVOK 42/M06 Q1002 NOSIG
SHW OESH SA Sharurah Airport 13 1.86 42/4 29.62 OESH 011400Z 03013KT 3000 BLDU NSC 42/04 Q1003 NOSIG
WAE OEWD SA Wadi Al Dawasir Airport 20 2.49 42/14 29.59 OEWD 011400Z 30020KT 4000 BLDU NSC 42/14 Q1002
LFM OISR Lamerd, IR Lamerd Airport 14 6.21 42/8 29.50 OISR 011400Z 28014KT CAVOK 42/08 Q0999 A2950 NOSIG
EBL ORER Arbil, IQ Erbil International Airport 6 4.97 42/8 29.56 ORER 011400Z 34006KT 8000 SCT030 SCT080 42/08 Q1001 NOSIG
BRI LIBD Bari, IT Bari Karol Wojtyła Airport 16 6.21 42/6 29.76 LIBD 011420Z 27016KT 230V300 CAVOK 42/06 Q1008
ETM LLER Eilat, IL Ramon Airport 12 6.21 41/7 29.59 LLER 011350Z 18012KT CAVOK 41/07 Q1002
CII LTBD Aydın, TR Çıldır Airport 11 6.21 41/13 29.68 LTBD 011350Z 34011KT 300V010 9999 FEW040 41/13 Q1005
KQRH 9 17 6.21 41/18 29.56 KQRH 011356Z AUTO 27009G17KT 170V320 9999 CLR 41/18 A2956 RMK AO2 SLP012 WND DATA ESTMD T04100183
JIB HDAM Djibouti City, DJ Djibouti-Ambouli Airport 8 6.21 41/20 29.62 HDAM 011400Z 30008KT 9999 FEW023 41/20 Q1003
MRX OIAM IR Mahshahr Airport 10 6.21 41/22 29.38 OIAM 011400Z 17010KT CAVOK 41/22 Q0995
LRR OISL Lar, IR Lar Airport 8 6.21 41/11 29.50 OISL 011400Z 28008KT CAVOK 41/11 Q0999 A2953 NOSIG
BJV LTFE Bodrum, TR Milas Bodrum International Airport 14 6.21 41/7 29.65 LTFE 011420Z 34014KT 310V010 9999 FEW035 41/07 Q1004 NOSIG RMK RWY10 32015KT
LCC LIBN IT Lecce Galatina Air Base 10 6.21 40/18 29.82 LIBN 011355Z 21010KT CAVOK 40/18 Q1010 RMK SKC VIS MIN 9999 WIND THR14 21010KT WIND THR32 22011KT BLU
KQD3 4 13 6.21 40/18 29.62 KQD3 011356Z AUTO VRB04G13KT 9999 CLR 40/19 A2962 RMK AO2 SLP014 WND DATA ESTMD T04030185